PQR weather

Pista Queretaro
Mexicali, Baja California, Mexico

Public forecast

Using degrees Celsius for public forecast. Weather courtesy of forecast.io.

Closest aviation weather report (METAR) to Pista Queretaro

Report is more than 2 hours old.

Closest report is General Rodolfo Sánchez Taboada International Airport, 7.3 nm (13.5 km) NW. Retrieved 2020/02/18 08:50 UTC (3 hours ago):

MMML 180850Z 00000KT 10SM SKC 13/04 A2991 RMK SLP129 52003 900

Closest aviation forecast (TAF) to Pista Queretaro

Closest forecast is General Rodolfo Sánchez Taboada International Airport, 7.3 nm (13.5 km) NW. Retrieved 2020/02/18 06:38 UTC (6 hours ago):

TAF MMML 180431Z 1806/1906 22004KT P6SM SKC FM181800 02015KT P6SM SKC BECMG 1903/1905 02006KT